createdAt,value
2019-01-29T00:00:47.068Z,67.70
2019-01-29T00:03:16.859Z,67.70
2019-01-29T00:05:46.297Z,67.90
2019-01-29T00:08:16.035Z,68.00
2019-01-29T00:10:45.414Z,68.00
2019-01-29T00:13:14.857Z,68.00
2019-01-29T00:15:44.247Z,68.00
2019-01-29T00:18:13.712Z,67.90
2019-01-29T00:20:43.079Z,68.00
2019-01-29T00:23:12.478Z,68.00
2019-01-29T00:25:41.907Z,68.00
2019-01-29T00:28:11.271Z,68.20
2019-01-29T00:30:40.974Z,68.40
2019-01-29T00:33:10.347Z,68.40
2019-01-29T00:35:39.708Z,68.40
2019-01-29T00:38:09.085Z,68.50
2019-01-29T00:40:38.458Z,68.50
2019-01-29T00:43:07.819Z,68.60
2019-01-29T00:45:37.202Z,68.50
2019-01-29T00:48:06.565Z,68.60
2019-01-29T00:50:35.924Z,68.60
2019-01-29T00:53:05.768Z,68.60
2019-01-29T00:55:35.132Z,68.70
2019-01-29T00:58:04.934Z,68.80
2019-01-29T01:00:34.332Z,68.90
2019-01-29T01:03:04.005Z,68.90
2019-01-29T01:05:33.819Z,68.80
2019-01-29T01:08:03.195Z,68.90
2019-01-29T01:10:33.532Z,68.90
2019-01-29T01:13:02.955Z,69.00
2019-01-29T01:15:32.584Z,68.80
2019-01-29T01:18:01.946Z,68.80
2019-01-29T01:20:31.316Z,68.70
2019-01-29T01:23:00.689Z,68.60
2019-01-29T01:25:30.068Z,68.00
2019-01-29T01:27:59.438Z,68.30
2019-01-29T01:30:29.280Z,68.80
2019-01-29T01:32:58.647Z,68.20
2019-01-29T01:35:28.012Z,68.00
2019-01-29T01:37:57.673Z,68.10
2019-01-29T01:40:27.039Z,68.10
2019-01-29T01:42:56.394Z,68.30
2019-01-29T01:45:25.780Z,68.50
2019-01-29T01:47:55.147Z,68.60
2019-01-29T01:50:24.507Z,68.90
2019-01-29T01:52:59.126Z,68.90
2019-01-29T01:55:25.219Z,68.90
2019-01-29T01:57:54.585Z,69.00
2019-01-29T02:00:24.506Z,69.00
2019-01-29T02:02:53.872Z,69.20
2019-01-29T02:05:23.256Z,69.10
2019-01-29T02:07:52.788Z,69.20
2019-01-29T02:10:26.441Z,69.20
2019-01-29T02:12:55.801Z,69.20
2019-01-29T02:15:25.933Z,69.50
2019-01-29T02:17:55.294Z,69.20
2019-01-29T02:20:24.741Z,69.20
2019-01-29T02:22:54.111Z,69.00
2019-01-29T02:25:23.490Z,68.80
2019-01-29T02:27:53.207Z,68.70
2019-01-29T02:30:24.544Z,69.40
2019-01-29T02:32:53.907Z,68.70
2019-01-29T02:35:23.264Z,68.70
2019-01-29T02:37:52.687Z,68.70
2019-01-29T02:40:28.024Z,68.60
2019-01-29T02:42:57.393Z,68.40
2019-01-29T02:45:27.300Z,68.40
2019-01-29T02:47:56.659Z,68.30
2019-01-29T02:50:26.028Z,67.70
2019-01-29T02:52:55.981Z,68.30
2019-01-29T02:55:25.399Z,68.30
2019-01-29T02:57:54.779Z,68.20
2019-01-29T03:00:27.267Z,68.20
2019-01-29T03:02:56.632Z,68.20
2019-01-29T03:05:26.089Z,68.20
2019-01-29T03:07:55.657Z,68.20
2019-01-29T03:10:27.330Z,68.30
2019-01-29T03:12:56.760Z,68.50
2019-01-29T03:15:30.260Z,68.60
2019-01-29T03:18:00.297Z,68.70
2019-01-29T03:20:29.880Z,68.70
2019-01-29T03:22:59.385Z,68.70
2019-01-29T03:25:28.757Z,68.60
2019-01-29T03:27:58.122Z,68.60
2019-01-29T03:30:27.570Z,68.60
2019-01-29T03:32:56.934Z,68.70
2019-01-29T03:35:26.293Z,68.50
2019-01-29T03:37:56.205Z,68.60
2019-01-29T03:40:28.181Z,68.40
2019-01-29T03:42:57.543Z,68.60
2019-01-29T03:45:26.986Z,68.70
2019-01-29T03:47:56.354Z,68.70
2019-01-29T03:50:25.958Z,68.60
2019-01-29T03:52:55.340Z,68.70
2019-01-29T03:55:24.704Z,68.80
2019-01-29T03:57:54.062Z,69.00
2019-01-29T04:00:28.380Z,69.80
2019-01-29T04:02:57.770Z,69.20
2019-01-29T04:05:27.135Z,69.30
2019-01-29T04:07:56.526Z,69.50
2019-01-29T04:10:26.486Z,69.50
2019-01-29T04:12:55.852Z,69.50
2019-01-29T04:15:25.506Z,69.40
2019-01-29T04:17:57.975Z,69.40
2019-01-29T04:20:27.851Z,69.30
2019-01-29T04:22:57.247Z,69.30
2019-01-29T04:25:26.917Z,69.20
2019-01-29T04:27:56.328Z,69.20
2019-01-29T04:30:26.081Z,69.10
2019-01-29T04:32:55.453Z,69.10
2019-01-29T04:35:24.816Z,68.80
2019-01-29T04:37:54.186Z,68.60
2019-01-29T04:40:23.613Z,68.40
2019-01-29T04:42:52.989Z,68.30
2019-01-29T04:45:22.647Z,68.10
2019-01-29T04:47:52.032Z,67.90
2019-01-29T04:50:22.008Z,67.90
2019-01-29T04:52:51.473Z,68.00
2019-01-29T04:55:21.318Z,67.90
2019-01-29T04:57:50.684Z,67.90
2019-01-29T05:00:26.580Z,67.80
2019-01-29T05:02:56.226Z,67.50
2019-01-29T05:05:25.744Z,67.40
2019-01-29T05:07:55.116Z,67.30
2019-01-29T05:10:24.727Z,67.00
2019-01-29T05:12:54.262Z,66.90
2019-01-29T05:15:23.777Z,67.10
2019-01-29T05:17:53.153Z,66.90
2019-01-29T05:20:23.219Z,66.90
2019-01-29T05:22:52.938Z,66.90
2019-01-29T05:25:22.313Z,66.80
2019-01-29T05:27:51.694Z,66.80
2019-01-29T05:30:24.077Z,66.80
2019-01-29T05:32:53.782Z,66.90
2019-01-29T05:35:23.286Z,66.80
2019-01-29T05:37:52.660Z,66.50
2019-01-29T05:40:23.740Z,66.70
2019-01-29T05:42:53.082Z,66.40
2019-01-29T05:45:23.866Z,66.30
2019-01-29T05:47:53.238Z,66.00
2019-01-29T05:50:22.677Z,66.20
2019-01-29T05:52:52.122Z,66.30
2019-01-29T05:55:21.497Z,66.20
2019-01-29T05:57:50.849Z,65.80
2019-01-29T06:00:28.832Z,65.90
2019-01-29T06:02:58.205Z,66.60
2019-01-29T06:05:28.008Z,65.70
2019-01-29T06:07:57.419Z,65.90
2019-01-29T06:10:26.783Z,66.00
2019-01-29T06:12:56.430Z,65.90
2019-01-29T06:15:27.054Z,65.90
2019-01-29T06:17:56.481Z,65.80
2019-01-29T06:20:29.372Z,65.70
2019-01-29T06:22:59.237Z,65.80
2019-01-29T06:25:28.643Z,65.70
2019-01-29T06:27:58.047Z,65.80
2019-01-29T06:30:27.765Z,65.90
2019-01-29T06:32:57.485Z,66.00
2019-01-29T06:35:26.849Z,65.90
2019-01-29T06:37:56.228Z,65.90
2019-01-29T06:40:28.299Z,66.10
2019-01-29T06:42:57.680Z,65.90
2019-01-29T06:45:27.781Z,65.80
2019-01-29T06:47:57.135Z,65.90
2019-01-29T06:50:28.182Z,66.00
2019-01-29T06:52:58.150Z,65.90
2019-01-29T06:55:27.589Z,66.50
2019-01-29T06:57:56.957Z,65.90
2019-01-29T07:00:30.111Z,65.90
2019-01-29T07:03:00.393Z,65.80
2019-01-29T07:05:29.777Z,65.90
2019-01-29T07:07:59.290Z,65.90
2019-01-29T07:10:29.394Z,65.80
2019-01-29T07:12:58.826Z,66.10
2019-01-29T07:15:48.498Z,66.00
2019-01-29T07:18:24.966Z,66.00
2019-01-29T07:20:54.336Z,66.20
2019-01-29T07:23:23.711Z,66.10
2019-01-29T07:25:53.082Z,66.00
2019-01-29T07:28:22.447Z,66.50
2019-01-29T07:30:52.559Z,66.00
2019-01-29T07:33:21.920Z,66.00
2019-01-29T07:35:51.348Z,66.30
2019-01-29T07:38:20.727Z,66.30
2019-01-29T07:40:50.104Z,66.50
2019-01-29T07:43:19.474Z,66.50
2019-01-29T07:45:48.877Z,66.70
2019-01-29T07:48:18.237Z,66.80
2019-01-29T07:50:48.007Z,66.80
2019-01-29T07:53:17.961Z,66.90
2019-01-29T07:55:47.305Z,66.90
2019-01-29T07:58:16.676Z,67.00
2019-01-29T08:00:46.075Z,66.90
2019-01-29T08:03:15.456Z,66.90
2019-01-29T08:05:45.502Z,66.60
2019-01-29T08:08:14.884Z,66.70
2019-01-29T08:10:44.250Z,66.70
2019-01-29T08:13:13.686Z,66.60
2019-01-29T08:15:43.809Z,66.50
2019-01-29T08:18:13.176Z,66.40
2019-01-29T08:20:42.540Z,66.30
2019-01-29T08:23:11.916Z,66.20
2019-01-29T08:25:47.678Z,66.20
2019-01-29T08:28:12.370Z,66.00
2019-01-29T08:30:41.742Z,65.90
2019-01-29T08:33:11.106Z,66.00
2019-01-29T08:35:41.621Z,66.20
2019-01-29T08:38:11.505Z,66.50
2019-01-29T08:40:40.871Z,66.50
2019-01-29T08:43:10.235Z,67.10
2019-01-29T08:45:39.613Z,66.30
2019-01-29T08:48:09.051Z,66.50
2019-01-29T08:50:38.489Z,66.40
2019-01-29T08:53:07.856Z,66.30
2019-01-29T08:55:37.476Z,66.00
2019-01-29T08:58:06.842Z,65.70
2019-01-29T09:00:36.742Z,65.60
2019-01-29T09:03:06.243Z,65.50
2019-01-29T09:05:35.617Z,65.40
2019-01-29T09:08:06.337Z,65.40
2019-01-29T09:10:35.786Z,65.50
2019-01-29T09:13:05.150Z,65.40
2019-01-29T09:15:34.543Z,65.20
2019-01-29T09:18:04.236Z,65.40
2019-01-29T09:20:33.587Z,65.50
2019-01-29T09:23:03.010Z,65.60
2019-01-29T09:25:32.679Z,65.60
2019-01-29T09:28:02.034Z,65.60
2019-01-29T09:30:31.419Z,65.80
2019-01-29T09:33:00.783Z,65.80
2019-01-29T09:35:30.148Z,65.80
2019-01-29T09:37:59.527Z,65.70
2019-01-29T09:40:28.900Z,65.60
2019-01-29T09:42:58.595Z,65.50
2019-01-29T09:45:28.450Z,65.30
2019-01-29T09:47:57.999Z,65.30
2019-01-29T09:50:27.360Z,65.20
2019-01-29T09:52:56.991Z,65.40
2019-01-29T09:55:29.309Z,65.30
2019-01-29T09:57:59.111Z,65.30
2019-01-29T10:00:37.965Z,64.80
2019-01-29T10:03:08.567Z,65.10
2019-01-29T10:05:38.275Z,64.90
2019-01-29T10:08:07.736Z,64.80
2019-01-29T10:10:37.109Z,64.60
2019-01-29T10:13:06.643Z,64.60
2019-01-29T10:15:37.939Z,64.60
2019-01-29T10:18:07.643Z,64.60
2019-01-29T10:20:37.743Z,64.60
2019-01-29T10:23:07.514Z,64.70
2019-01-29T10:25:38.051Z,64.50
2019-01-29T10:28:07.546Z,64.50
2019-01-29T10:30:36.937Z,64.60
2019-01-29T10:33:06.537Z,64.20
2019-01-29T10:35:35.904Z,64.20
2019-01-29T10:38:05.349Z,64.00
2019-01-29T10:40:34.719Z,64.20
2019-01-29T10:43:04.352Z,64.00
2019-01-29T10:45:34.188Z,64.00
2019-01-29T10:48:03.547Z,64.20
2019-01-29T10:50:33.065Z,64.40
2019-01-29T10:53:02.440Z,64.30
2019-01-29T10:55:32.274Z,64.20
2019-01-29T10:58:01.980Z,64.30
2019-01-29T11:00:41.968Z,64.20
2019-01-29T11:03:11.601Z,64.30
2019-01-29T11:05:41.337Z,64.20
2019-01-29T11:08:10.779Z,64.10
2019-01-29T11:10:40.150Z,64.30
2019-01-29T11:13:09.506Z,64.30
2019-01-29T11:15:41.606Z,64.20
2019-01-29T11:18:13.503Z,64.10
2019-01-29T11:20:42.938Z,64.10
2019-01-29T11:23:12.752Z,64.20
2019-01-29T11:25:42.182Z,64.20
2019-01-29T11:28:11.662Z,64.30
2019-01-29T11:30:41.475Z,64.70
2019-01-29T11:33:10.841Z,64.00
2019-01-29T11:35:40.633Z,64.10
2019-01-29T11:38:10.075Z,64.20
2019-01-29T11:40:39.668Z,64.10
2019-01-29T11:43:09.297Z,64.20
2019-01-29T11:45:43.339Z,64.40
2019-01-29T11:48:12.697Z,64.50
2019-01-29T11:50:42.140Z,64.70
2019-01-29T11:53:11.536Z,64.80
2019-01-29T11:55:40.880Z,64.70
2019-01-29T11:58:10.255Z,64.50
2019-01-29T12:00:41.476Z,64.50
2019-01-29T12:03:10.860Z,64.50
2019-01-29T12:05:40.224Z,64.40
2019-01-29T12:08:10.137Z,64.20
2019-01-29T12:10:39.502Z,64.20
2019-01-29T12:13:08.878Z,64.20
2019-01-29T12:15:38.449Z,64.00
2019-01-29T12:18:07.890Z,63.80
2019-01-29T12:20:37.337Z,63.90
2019-01-29T12:23:06.852Z,63.60
2019-01-29T12:25:36.568Z,63.40
2019-01-29T12:28:06.089Z,62.80
2019-01-29T12:30:35.857Z,62.40
2019-01-29T12:33:07.432Z,62.20
2019-01-29T12:35:36.813Z,62.20
2019-01-29T12:38:06.271Z,61.80
2019-01-29T12:40:37.050Z,61.50
2019-01-29T12:43:07.036Z,61.60
2019-01-29T12:45:36.432Z,61.70
2019-01-29T12:48:06.319Z,61.50
2019-01-29T12:50:36.496Z,61.70
2019-01-29T12:53:07.944Z,61.00
2019-01-29T12:55:37.652Z,60.50
2019-01-29T12:58:07.337Z,60.30
2019-01-29T13:00:41.342Z,60.00
2019-01-29T13:03:10.710Z,60.20
2019-01-29T13:05:40.082Z,60.40
2019-01-29T13:08:10.497Z,60.40
2019-01-29T13:10:40.182Z,60.70
2019-01-29T13:13:09.693Z,60.70
2019-01-29T13:15:39.317Z,60.60
2019-01-29T13:18:08.696Z,60.70
2019-01-29T13:20:38.063Z,60.50
2019-01-29T13:23:07.528Z,60.10
2019-01-29T13:25:36.897Z,60.00
2019-01-29T13:28:06.697Z,60.10
2019-01-29T13:30:38.458Z,59.90
2019-01-29T13:33:11.417Z,60.10
2019-01-29T13:35:41.093Z,59.90
2019-01-29T13:38:11.440Z,59.80
2019-01-29T13:40:41.099Z,59.90
2019-01-29T13:43:10.714Z,59.90
2019-01-29T13:45:41.078Z,59.90
2019-01-29T13:48:10.533Z,59.90
2019-01-29T13:50:49.630Z,59.70
2019-01-29T13:53:18.995Z,59.40
2019-01-29T13:55:48.438Z,59.10
2019-01-29T13:58:17.957Z,59.20
2019-01-29T14:00:47.698Z,59.10
2019-01-29T14:03:18.662Z,59.10
2019-01-29T14:05:48.708Z,59.20
2019-01-29T14:08:18.097Z,59.30
2019-01-29T14:10:47.460Z,59.50
2019-01-29T14:13:16.837Z,59.40
2019-01-29T14:15:53.532Z,59.20
2019-01-29T14:18:23.039Z,59.20
2019-01-29T14:20:52.892Z,59.40
2019-01-29T14:23:22.258Z,59.60
2019-01-29T14:25:51.641Z,59.70
2019-01-29T14:28:21.012Z,59.70
2019-01-29T14:30:51.637Z,59.80
2019-01-29T14:33:20.989Z,59.80
2019-01-29T14:35:50.376Z,59.80
2019-01-29T14:38:33.345Z,59.80
2019-01-29T14:41:03.069Z,60.00
2019-01-29T14:43:41.806Z,59.80
2019-01-29T14:46:11.199Z,59.80
2019-01-29T14:48:40.563Z,59.90
2019-01-29T14:51:09.933Z,60.00
2019-01-29T14:53:39.329Z,60.00
2019-01-29T14:56:08.714Z,60.10
2019-01-29T14:58:38.367Z,60.30
2019-01-29T15:01:08.432Z,60.10
2019-01-29T15:03:37.945Z,60.00
2019-01-29T15:06:07.381Z,60.00
2019-01-29T15:08:36.759Z,60.10
2019-01-29T15:11:06.144Z,60.30
2019-01-29T15:13:35.517Z,60.30
2019-01-29T15:16:17.482Z,60.40
2019-01-29T15:18:48.490Z,60.40
2019-01-29T15:21:17.892Z,60.40
2019-01-29T15:23:47.279Z,60.30
2019-01-29T15:26:16.659Z,61.10
2019-01-29T15:28:46.037Z,60.30
2019-01-29T15:31:15.867Z,60.40
2019-01-29T15:33:45.237Z,60.50
2019-01-29T15:36:14.816Z,60.40
2019-01-29T15:38:44.727Z,60.60
2019-01-29T15:41:14.108Z,60.60
2019-01-29T15:43:43.480Z,60.60
2019-01-29T15:46:12.876Z,60.70
2019-01-29T15:48:42.241Z,60.90
2019-01-29T15:51:11.623Z,61.00
2019-01-29T15:53:41.034Z,60.90
2019-01-29T15:56:10.409Z,60.90
2019-01-29T15:58:39.779Z,61.00
2019-01-29T16:01:09.572Z,61.00
2019-01-29T16:03:39.243Z,61.10
2019-01-29T16:06:08.611Z,61.10
2019-01-29T16:08:37.994Z,61.10
2019-01-29T16:11:07.369Z,61.30
2019-01-29T16:13:36.737Z,61.20
2019-01-29T16:16:06.173Z,61.90
2019-01-29T16:18:35.555Z,61.40
2019-01-29T16:21:04.934Z,61.50
2019-01-29T16:23:34.487Z,61.50
2019-01-29T16:26:04.194Z,61.60
2019-01-29T16:28:33.581Z,61.50
2019-01-29T16:31:02.976Z,61.70
2019-01-29T16:33:32.560Z,61.70
2019-01-29T16:36:01.995Z,61.70
2019-01-29T16:38:31.380Z,61.80
2019-01-29T16:41:00.973Z,61.80
2019-01-29T16:43:30.304Z,61.90
2019-01-29T16:46:00.041Z,61.80
2019-01-29T16:48:29.474Z,61.90
2019-01-29T16:50:58.886Z,61.80
2019-01-29T16:53:28.259Z,61.90
2019-01-29T16:55:57.701Z,62.00
2019-01-29T16:58:27.083Z,62.10
2019-01-29T17:00:56.539Z,62.20
2019-01-29T17:03:25.906Z,62.10
2019-01-29T17:05:55.281Z,62.10
2019-01-29T17:08:25.101Z,62.20
2019-01-29T17:10:54.487Z,62.20
2019-01-29T17:13:23.855Z,62.30
2019-01-29T17:15:53.308Z,62.30
2019-01-29T17:18:22.952Z,62.40
2019-01-29T17:20:52.337Z,62.50
2019-01-29T17:23:21.716Z,62.40
2019-01-29T17:25:51.371Z,62.50
2019-01-29T17:28:20.742Z,62.50
2019-01-29T17:30:50.431Z,62.50
2019-01-29T17:33:19.893Z,62.50
2019-01-29T17:35:49.409Z,62.50
2019-01-29T17:38:18.805Z,62.60
2019-01-29T17:40:48.238Z,62.50
2019-01-29T17:43:17.684Z,62.50
2019-01-29T17:45:52.670Z,62.60
2019-01-29T17:48:22.045Z,62.60
2019-01-29T17:50:52.557Z,62.60
2019-01-29T17:53:21.949Z,62.50
2019-01-29T17:55:51.317Z,62.70
2019-01-29T17:58:20.680Z,62.70
2019-01-29T18:00:54.691Z,62.70
2019-01-29T18:03:24.083Z,62.60
2019-01-29T18:05:53.463Z,62.60
2019-01-29T18:08:22.841Z,62.70
2019-01-29T18:10:52.277Z,62.60
2019-01-29T18:13:21.655Z,62.60
2019-01-29T18:15:51.040Z,62.60
2019-01-29T18:18:20.409Z,62.50
2019-01-29T18:20:49.784Z,62.60
2019-01-29T18:23:19.351Z,62.50
2019-01-29T18:25:48.724Z,62.50
2019-01-29T18:28:18.102Z,62.50
2019-01-29T18:30:47.493Z,62.40
2019-01-29T18:33:16.860Z,62.40
2019-01-29T18:35:46.246Z,62.30
2019-01-29T18:38:15.736Z,62.40
2019-01-29T18:40:51.418Z,62.40
2019-01-29T18:43:20.791Z,62.30
2019-01-29T18:45:50.539Z,62.20
2019-01-29T18:48:19.914Z,62.20
2019-01-29T18:50:49.283Z,62.10
2019-01-29T18:53:18.680Z,62.10
2019-01-29T18:55:48.050Z,62.10
2019-01-29T18:58:17.421Z,61.90
2019-01-29T19:00:54.291Z,61.80
2019-01-29T19:03:17.918Z,61.80
2019-01-29T19:05:47.279Z,61.80
2019-01-29T19:08:16.969Z,61.80
2019-01-29T19:10:46.344Z,61.80
2019-01-29T19:13:15.804Z,61.70
2019-01-29T19:15:45.180Z,61.80
2019-01-29T19:18:14.789Z,61.80
2019-01-29T19:20:44.164Z,61.70
2019-01-29T19:23:13.547Z,61.80
2019-01-29T19:25:42.922Z,61.80
2019-01-29T19:28:21.431Z,61.70
2019-01-29T19:30:43.676Z,61.70
2019-01-29T19:33:13.046Z,61.90
2019-01-29T19:35:42.413Z,61.80
2019-01-29T19:38:11.819Z,62.50
2019-01-29T19:40:42.189Z,61.80
2019-01-29T19:43:13.656Z,61.80
2019-01-29T19:45:42.694Z,61.90
2019-01-29T19:48:12.067Z,61.90
2019-01-29T19:50:41.450Z,62.00
2019-01-29T19:53:11.172Z,61.90
2019-01-29T19:55:40.610Z,62.00
2019-01-29T19:58:10.360Z,62.10
2019-01-29T20:00:43.268Z,62.00
2019-01-29T20:03:12.721Z,62.10
2019-01-29T20:05:42.149Z,62.10
2019-01-29T20:08:11.531Z,62.00
2019-01-29T20:10:40.900Z,62.00
2019-01-29T20:13:10.269Z,62.10
2019-01-29T20:15:40.202Z,62.10
2019-01-29T20:18:09.588Z,62.10
2019-01-29T20:20:41.538Z,62.10
2019-01-29T20:23:10.938Z,62.20
2019-01-29T20:25:40.305Z,62.20
2019-01-29T20:28:09.840Z,62.20
2019-01-29T20:30:41.394Z,62.30
2019-01-29T20:33:12.140Z,62.30
2019-01-29T20:35:41.526Z,61.70
2019-01-29T20:38:12.545Z,62.20
2019-01-29T20:40:41.931Z,62.30
2019-01-29T20:43:11.512Z,62.20
2019-01-29T20:45:40.901Z,62.10
2019-01-29T20:48:10.272Z,62.10
2019-01-29T20:50:40.001Z,62.10
2019-01-29T20:53:09.913Z,62.20
2019-01-29T20:55:39.291Z,62.20
2019-01-29T20:58:08.792Z,62.30
2019-01-29T21:00:43.280Z,62.40
2019-01-29T21:03:12.644Z,62.40
2019-01-29T21:05:42.077Z,62.50
2019-01-29T21:08:11.702Z,62.50
2019-01-29T21:10:41.077Z,62.60
2019-01-29T21:13:11.009Z,62.60
2019-01-29T21:15:40.535Z,62.70
2019-01-29T21:18:09.906Z,62.20
2019-01-29T21:20:39.274Z,62.90
2019-01-29T21:23:08.662Z,63.10
2019-01-29T21:25:38.119Z,63.20
2019-01-29T21:28:07.552Z,63.30
2019-01-29T21:30:40.653Z,63.40
2019-01-29T21:33:10.017Z,63.50
2019-01-29T21:35:39.396Z,63.70
2019-01-29T21:38:08.794Z,63.80
2019-01-29T21:40:38.152Z,63.90
2019-01-29T21:43:07.513Z,64.00
2019-01-29T21:45:37.623Z,64.10
2019-01-29T21:48:07.119Z,64.20
2019-01-29T21:50:36.990Z,64.30
2019-01-29T21:53:06.986Z,64.40
2019-01-29T21:55:36.359Z,64.50
2019-01-29T21:58:06.734Z,64.40
2019-01-29T22:00:42.101Z,64.50
2019-01-29T22:03:11.625Z,64.50
2019-01-29T22:05:41.057Z,64.50
2019-01-29T22:08:10.990Z,64.50
2019-01-29T22:10:40.775Z,64.50
2019-01-29T22:13:10.275Z,64.50
2019-01-29T22:15:39.667Z,64.50
2019-01-29T22:18:09.440Z,64.50
2019-01-29T22:20:38.800Z,64.60
2019-01-29T22:23:08.186Z,65.40
2019-01-29T22:25:37.551Z,64.70
2019-01-29T22:28:07.442Z,64.80
2019-01-29T22:30:40.334Z,64.90
2019-01-29T22:33:09.768Z,65.00
2019-01-29T22:35:39.127Z,64.90
2019-01-29T22:38:08.849Z,65.70
2019-01-29T22:40:38.290Z,65.00
2019-01-29T22:43:07.721Z,65.20
2019-01-29T22:45:37.123Z,65.40
2019-01-29T22:48:10.399Z,65.30
2019-01-29T22:50:41.470Z,65.50
2019-01-29T22:53:11.467Z,65.60
2019-01-29T22:55:40.835Z,65.70
2019-01-29T22:58:10.783Z,65.70
2019-01-29T23:00:52.491Z,65.80
2019-01-29T23:03:25.733Z,65.90
2019-01-29T23:06:14.596Z,65.90
2019-01-29T23:08:43.960Z,66.00
2019-01-29T23:11:13.330Z,66.20
2019-01-29T23:13:43.004Z,66.20
2019-01-29T23:16:12.453Z,66.30
2019-01-29T23:18:42.077Z,66.40
2019-01-29T23:21:11.657Z,66.50
2019-01-29T23:23:41.033Z,66.50
2019-01-29T23:26:10.412Z,66.60
2019-01-29T23:28:39.793Z,66.60
2019-01-29T23:31:09.153Z,66.70
2019-01-29T23:33:38.514Z,66.70
2019-01-29T23:36:08.589Z,66.80
2019-01-29T23:38:38.299Z,66.80
2019-01-29T23:41:07.660Z,66.90
2019-01-29T23:43:37.114Z,67.00
2019-01-29T23:46:06.484Z,66.90
2019-01-29T23:48:35.935Z,67.00
2019-01-29T23:51:06.046Z,66.90
2019-01-29T23:53:35.391Z,67.00
2019-01-29T23:56:06.063Z,67.00
2019-01-29T23:58:36.188Z,67.10
